createdAt,value
2022-09-07T00:00:42.202Z,23.00
2022-09-07T00:04:45.056Z,23.00
2022-09-07T00:08:47.842Z,23.00
2022-09-07T00:12:51.557Z,23.00
2022-09-07T00:16:54.441Z,23.00
2022-09-07T00:21:01.995Z,23.00
2022-09-07T00:25:05.656Z,23.00
2022-09-07T00:29:08.489Z,23.00
2022-09-07T00:33:11.275Z,23.00
2022-09-07T00:37:14.224Z,22.70
2022-09-07T00:41:17.973Z,22.60
2022-09-07T00:45:21.688Z,22.50
2022-09-07T00:49:24.824Z,22.50
2022-09-07T00:53:38.196Z,22.50
2022-09-07T00:57:45.409Z,22.20
2022-09-07T01:01:48.695Z,22.00
2022-09-07T01:06:13.188Z,22.00
2022-09-07T01:10:16.373Z,21.90
2022-09-07T01:14:23.333Z,21.70
2022-09-07T01:19:01.213Z,21.70
2022-09-07T01:23:37.798Z,21.60
2022-09-07T01:27:58.777Z,21.50
2022-09-07T01:32:12.028Z,21.30
2022-09-07T01:36:29.086Z,21.20
2022-09-07T01:40:45.956Z,21.20
2022-09-07T01:44:58.596Z,21.10
2022-09-07T01:49:18.057Z,21.00
2022-09-07T01:53:31.015Z,21.00
2022-09-07T01:57:41.494Z,21.00
2022-09-07T02:02:07.649Z,21.10
2022-09-07T02:06:16.468Z,21.00
2022-09-07T02:10:30.017Z,21.00
2022-09-07T02:14:38.007Z,20.90
2022-09-07T02:19:10.858Z,20.90
2022-09-07T02:23:26.166Z,20.80
2022-09-07T02:27:39.737Z,20.70
2022-09-07T02:31:42.550Z,20.60
2022-09-07T02:35:46.469Z,20.50
2022-09-07T02:39:49.409Z,20.50
2022-09-07T02:43:52.261Z,20.50
2022-09-07T02:48:03.956Z,20.50
2022-09-07T02:52:21.662Z,20.40
2022-09-07T02:56:38.161Z,20.50
2022-09-07T03:00:48.808Z,20.50
2022-09-07T03:05:21.615Z,20.40
2022-09-07T03:09:30.595Z,20.30
2022-09-07T03:13:33.539Z,20.40
2022-09-07T03:17:36.276Z,20.20
2022-09-07T03:21:39.128Z,20.10
2022-09-07T03:25:42.086Z,20.10
2022-09-07T03:29:44.818Z,20.00
2022-09-07T03:33:47.589Z,20.00
2022-09-07T03:37:50.326Z,20.00
2022-09-07T03:41:53.102Z,19.90
2022-09-07T03:46:00.763Z,19.80
2022-09-07T03:50:04.660Z,19.80
2022-09-07T03:54:07.496Z,19.90
2022-09-07T03:58:10.184Z,20.00
2022-09-07T04:02:13.799Z,20.00
2022-09-07T04:06:17.559Z,20.00
2022-09-07T04:10:20.284Z,19.90
2022-09-07T04:14:23.232Z,20.00
2022-09-07T04:18:26.203Z,20.10
2022-09-07T04:22:28.989Z,20.10
2022-09-07T04:26:35.771Z,20.20
2022-09-07T04:30:38.515Z,20.20
2022-09-07T04:34:41.764Z,20.40
2022-09-07T04:38:45.277Z,20.50
2022-09-07T04:42:48.047Z,20.50
2022-09-07T04:46:51.230Z,20.60
2022-09-07T04:50:54.134Z,20.60
2022-09-07T04:54:56.968Z,20.70
2022-09-07T04:59:02.489Z,20.90
2022-09-07T05:03:06.258Z,21.00
2022-09-07T05:07:08.955Z,21.00
2022-09-07T05:11:13.156Z,21.20
2022-09-07T05:15:15.962Z,21.30
2022-09-07T05:19:18.855Z,21.30
2022-09-07T05:23:21.917Z,21.30
2022-09-07T05:27:24.934Z,21.10
2022-09-07T05:31:28.908Z,21.20
2022-09-07T05:35:32.489Z,21.20
2022-09-07T05:39:35.249Z,21.20
2022-09-07T05:48:00.978Z,21.40
2022-09-07T05:52:03.919Z,21.50
2022-09-07T05:56:07.223Z,21.50
2022-09-07T06:00:10.793Z,21.50
2022-09-07T06:04:14.887Z,21.50
2022-09-07T06:08:17.632Z,21.60
2022-09-07T06:12:20.503Z,21.70
2022-09-07T06:16:23.424Z,21.80
2022-09-07T06:20:26.721Z,22.10
2022-09-07T06:24:29.424Z,22.30
2022-09-07T06:28:34.602Z,22.40
2022-09-07T06:32:45.523Z,22.40
2022-09-07T06:36:48.971Z,22.60
2022-09-07T06:45:15.406Z,23.00
2022-09-07T06:49:18.225Z,23.30
2022-09-07T06:53:37.639Z,23.60
2022-09-07T06:57:42.233Z,23.80
2022-09-07T07:01:45.027Z,24.00
2022-09-07T07:05:55.676Z,24.00
2022-09-07T07:09:58.445Z,24.10
2022-09-07T07:14:02.095Z,24.10
2022-09-07T07:18:19.954Z,24.20
2022-09-07T07:22:45.670Z,24.30
2022-09-07T07:26:48.701Z,24.30
2022-09-07T07:30:56.437Z,24.30
2022-09-07T07:34:59.567Z,24.40
2022-09-07T07:39:05.883Z,24.60
2022-09-07T07:43:08.970Z,24.80
2022-09-07T07:47:40.062Z,24.80
2022-09-07T07:56:14.699Z,24.90
2022-09-07T08:00:53.362Z,25.00
2022-09-07T08:04:46.053Z,25.10
2022-09-07T08:08:48.899Z,25.30
2022-09-07T08:12:53.345Z,25.60
2022-09-07T08:16:59.147Z,26.00
2022-09-07T08:21:08.408Z,26.30
2022-09-07T08:25:14.811Z,26.50
2022-09-07T08:29:19.832Z,26.70
2022-09-07T08:33:25.446Z,27.00
2022-09-07T08:37:31.119Z,27.10
2022-09-07T08:42:07.932Z,27.20
2022-09-07T08:51:29.799Z,27.20
2022-09-07T08:55:44.083Z,27.30
2022-09-07T08:59:53.464Z,27.40
2022-09-07T09:08:37.180Z,27.70
2022-09-07T09:13:12.770Z,28.20
2022-09-07T09:17:26.191Z,28.50
2022-09-07T09:21:29.069Z,28.60
2022-09-07T09:25:37.333Z,28.90
2022-09-07T09:29:40.061Z,29.00
2022-09-07T09:33:42.866Z,29.10
2022-09-07T09:37:45.924Z,29.20
2022-09-07T09:41:50.041Z,29.40
2022-09-07T09:54:53.822Z,29.60
2022-09-07T10:03:55.109Z,30.10
2022-09-07T10:07:58.798Z,30.40
2022-09-07T10:12:07.072Z,30.50
2022-09-07T10:16:17.135Z,30.70
2022-09-07T10:20:45.107Z,30.90
2022-09-07T10:24:48.285Z,31.10
2022-09-07T10:29:15.351Z,31.00
2022-09-07T10:33:43.238Z,31.00
2022-09-07T10:38:50.528Z,31.00
2022-09-07T10:43:22.850Z,31.10
2022-09-07T10:47:43.542Z,31.10
2022-09-07T10:52:23.357Z,31.40
2022-09-07T10:56:35.134Z,31.50
2022-09-07T11:00:48.813Z,31.60
2022-09-07T11:05:13.027Z,31.70
2022-09-07T11:10:00.529Z,31.90
2022-09-07T11:14:13.468Z,32.20
2022-09-07T11:18:51.418Z,32.10
2022-09-07T11:23:03.523Z,31.80
2022-09-07T11:27:35.607Z,31.70
2022-09-07T11:31:40.549Z,31.90
2022-09-07T11:35:52.377Z,31.80
2022-09-07T11:40:09.434Z,31.80
2022-09-07T11:44:24.836Z,31.90
2022-09-07T11:48:34.146Z,32.10
2022-09-07T11:52:40.973Z,32.30
2022-09-07T11:56:50.354Z,32.40
2022-09-07T12:01:14.947Z,32.50
2022-09-07T12:05:31.287Z,32.90
2022-09-07T12:10:14.033Z,33.00
2022-09-07T12:14:47.868Z,33.10
2022-09-07T12:19:28.174Z,33.40
2022-09-07T12:23:32.119Z,33.20
2022-09-07T12:27:34.834Z,33.00
2022-09-07T12:32:52.385Z,32.90
2022-09-07T12:36:38.699Z,32.90
2022-09-07T12:40:48.937Z,33.00
2022-09-07T12:45:29.830Z,33.30
2022-09-07T12:49:53.172Z,33.10
2022-09-07T12:54:19.785Z,33.20
2022-09-07T12:58:39.521Z,33.30
2022-09-07T13:02:53.716Z,33.50
2022-09-07T13:07:15.304Z,33.30
2022-09-07T13:11:21.234Z,33.10
2022-09-07T13:15:34.902Z,33.00
2022-09-07T13:19:46.744Z,33.10
2022-09-07T13:28:51.661Z,33.50
2022-09-07T13:33:29.590Z,33.50
2022-09-07T13:37:54.231Z,33.20
2022-09-07T13:41:59.360Z,32.90
2022-09-07T13:46:12.654Z,32.90
2022-09-07T13:50:35.711Z,33.00
2022-09-07T13:54:44.517Z,33.00
2022-09-07T13:58:51.906Z,33.40
2022-09-07T14:02:57.063Z,33.50
2022-09-07T14:07:15.446Z,33.50
2022-09-07T14:11:26.906Z,33.30
2022-09-07T14:15:39.474Z,33.30
2022-09-07T14:19:46.097Z,33.40
2022-09-07T14:23:51.367Z,33.40
2022-09-07T14:27:54.175Z,33.50
2022-09-07T14:31:59.460Z,33.60
2022-09-07T14:36:23.353Z,33.60
2022-09-07T14:40:28.013Z,33.60
2022-09-07T14:44:40.612Z,33.40
2022-09-07T14:48:45.893Z,33.40
2022-09-07T14:57:17.309Z,33.20
2022-09-07T15:01:40.517Z,33.00
2022-09-07T15:05:48.937Z,32.60
2022-09-07T15:09:51.700Z,32.50
2022-09-07T15:13:57.615Z,32.40
2022-09-07T15:18:08.442Z,32.30
2022-09-07T15:22:13.355Z,32.20
2022-09-07T15:30:39.711Z,31.80
2022-09-07T15:34:43.922Z,31.60
2022-09-07T15:39:03.341Z,31.20
2022-09-07T15:43:19.459Z,30.70
2022-09-07T15:56:09.084Z,29.50
2022-09-07T16:00:12.614Z,29.20
2022-09-07T16:04:15.926Z,28.90
2022-09-07T16:08:26.632Z,28.50
2022-09-07T16:21:21.537Z,27.50
2022-09-07T16:25:28.872Z,26.90
2022-09-07T16:29:31.698Z,26.70
2022-09-07T16:33:37.022Z,26.40
2022-09-07T16:38:43.771Z,26.20
2022-09-07T16:42:02.788Z,26.10
2022-09-07T16:46:07.613Z,26.30
2022-09-07T16:50:10.380Z,26.30
2022-09-07T16:54:14.334Z,26.50
2022-09-07T17:02:40.384Z,27.80
2022-09-07T17:06:43.247Z,28.30
2022-09-07T17:10:46.853Z,28.30
2022-09-07T17:14:49.851Z,28.00
2022-09-07T17:23:21.271Z,27.50
2022-09-07T17:27:24.272Z,27.00
2022-09-07T17:36:01.393Z,26.20
2022-09-07T17:40:06.039Z,25.90
2022-09-07T17:44:09.192Z,25.70
2022-09-07T17:48:14.825Z,25.50
2022-09-07T17:52:17.701Z,25.30
2022-09-07T17:56:22.612Z,25.00
2022-09-07T18:00:25.666Z,24.70
2022-09-07T18:04:28.986Z,24.50
2022-09-07T18:08:31.866Z,24.40
2022-09-07T18:12:34.698Z,24.20
2022-09-07T18:16:37.465Z,24.10
2022-09-07T18:20:40.826Z,24.00
2022-09-07T18:24:43.933Z,24.00
2022-09-07T18:29:18.934Z,24.00
2022-09-07T18:33:16.674Z,23.90
2022-09-07T18:37:19.673Z,24.00
2022-09-07T18:41:23.272Z,24.00
2022-09-07T18:45:27.887Z,24.00
2022-09-07T18:49:30.953Z,24.00
2022-09-07T18:53:34.638Z,24.00
2022-09-07T18:57:37.978Z,24.00
2022-09-07T19:01:40.870Z,24.00
2022-09-07T19:05:52.553Z,24.00
2022-09-07T19:09:56.134Z,24.10
2022-09-07T19:14:01.022Z,24.00
2022-09-07T19:18:05.711Z,24.10
2022-09-07T19:22:08.471Z,24.00
2022-09-07T19:26:11.673Z,24.00
2022-09-07T19:30:15.654Z,24.00
2022-09-07T19:34:18.632Z,24.10
2022-09-07T19:38:21.783Z,24.10
2022-09-07T19:42:25.812Z,24.10
2022-09-07T19:46:28.613Z,24.10
2022-09-07T19:50:32.367Z,24.20
2022-09-07T19:54:36.424Z,24.30
2022-09-07T19:58:41.311Z,24.30
2022-09-07T20:02:44.186Z,24.30
2022-09-07T20:06:51.986Z,24.20
2022-09-07T20:10:59.664Z,24.20
2022-09-07T20:15:02.212Z,24.10
2022-09-07T20:19:09.254Z,24.00
2022-09-07T20:23:12.057Z,24.00
2022-09-07T20:27:14.702Z,24.10
2022-09-07T20:31:17.918Z,24.20
2022-09-07T20:35:20.696Z,24.20
2022-09-07T20:39:24.064Z,24.30
2022-09-07T20:43:28.169Z,24.40
2022-09-07T20:47:31.481Z,24.40
2022-09-07T20:51:34.377Z,24.30
2022-09-07T20:55:37.168Z,24.20
2022-09-07T20:59:39.909Z,24.10
2022-09-07T21:03:49.415Z,24.00
2022-09-07T21:07:52.436Z,24.00
2022-09-07T21:11:57.116Z,23.80
2022-09-07T21:16:05.129Z,23.70
2022-09-07T21:20:08.246Z,23.60
2022-09-07T21:24:23.362Z,23.60
2022-09-07T21:28:27.095Z,23.60
2022-09-07T21:32:29.792Z,23.50
2022-09-07T21:36:34.152Z,23.50
2022-09-07T21:40:41.066Z,23.50
2022-09-07T21:44:43.766Z,23.60
2022-09-07T21:48:46.702Z,23.50
2022-09-07T21:52:49.393Z,23.40
2022-09-07T21:56:53.439Z,23.40
2022-09-07T22:00:57.248Z,23.30
2022-09-07T22:05:00.241Z,23.30
2022-09-07T22:09:04.999Z,23.20
2022-09-07T22:13:07.860Z,23.20
2022-09-07T22:17:10.553Z,23.20
2022-09-07T22:21:20.337Z,23.20
2022-09-07T22:25:23.310Z,23.20
2022-09-07T22:29:26.394Z,23.10
2022-09-07T22:33:29.119Z,23.10
2022-09-07T22:37:32.296Z,23.10
2022-09-07T22:41:37.219Z,23.00
2022-09-07T22:45:39.992Z,23.00
2022-09-07T22:49:42.699Z,22.80
2022-09-07T22:53:45.528Z,22.80
2022-09-07T22:57:48.329Z,22.80
2022-09-07T23:01:51.556Z,22.70
2022-09-07T23:05:54.695Z,22.80
2022-09-07T23:09:57.481Z,22.60
2022-09-07T23:14:02.251Z,22.50
2022-09-07T23:18:05.025Z,22.40
2022-09-07T23:22:07.784Z,22.30
2022-09-07T23:26:10.634Z,22.20
2022-09-07T23:30:13.663Z,22.20
2022-09-07T23:34:16.616Z,22.20
2022-09-07T23:38:19.481Z,22.20
2022-09-07T23:42:22.500Z,22.30
2022-09-07T23:46:25.520Z,22.30
2022-09-07T23:50:28.477Z,22.30
2022-09-07T23:54:31.367Z,22.30
2022-09-07T23:58:34.183Z,22.30
